Time;durP1;ratioP1;P1;durP2;ratioP2;P2;SDS_P1;SDS_P2;PMS_P1;PMS_P2;Temp;Humidity;BMP_temperature;BMP_pressure;BME280_temperature;BME280_humidity;BME280_pressure;Samples;Min_cycle;Max_cycle;Signal;HPM_P1;HPM_P2
2023/05/10 00:00:04;;;;;;;19.80;12.95;;;;;;;9.63;100.00;98024.75;10318369;28;20116;-50
2023/05/10 00:05:04;;;;;;;26.52;14.10;;;;;;;9.56;100.00;98021.28;10316220;28;20120;-51
2023/05/10 00:10:04;;;;;;;22.50;13.70;;;;;;;9.72;100.00;98014.44;10319309;28;20076;-51
2023/05/10 00:15:03;;;;;;;22.90;14.60;;;;;;;9.87;100.00;97999.00;10318424;28;20116;-49
2023/05/10 00:20:04;;;;;;;20.50;14.05;;;;;;;10.04;100.00;98009.47;10323045;28;20130;-51
2023/05/10 00:25:04;;;;;;;21.85;13.13;;;;;;;9.50;100.00;97961.63;10326024;28;20123;-51
2023/05/10 00:30:03;;;;;;;19.35;13.23;;;;;;;9.54;100.00;98005.72;10323337;28;20614;-51
2023/05/10 00:35:02;;;;;;;20.90;13.90;;;;;;;9.66;100.00;97997.16;10326543;28;20057;-49
2023/05/10 00:40:01;;;;;;;22.85;13.77;;;;;;;9.69;100.00;97975.56;10325616;28;20490;-50
2023/05/10 00:45:00;;;;;;;;;;;;;;;9.77;100.00;97998.09;10326168;28;20472;-51
2023/05/10 00:50:00;;;;;;;23.63;15.73;;;;;;;9.81;100.00;97992.91;10325205;28;20487;-51
2023/05/10 00:55:00;;;;;;;23.23;14.85;;;;;;;9.88;100.00;97989.50;10325441;28;20079;-50
2023/05/10 00:59:59;;;;;;;23.70;15.50;;;;;;;9.80;100.00;97986.00;10324365;28;20148;-48
2023/05/10 01:04:58;;;;;;;22.58;14.98;;;;;;;9.96;100.00;97990.41;10325754;28;20081;-51
2023/05/10 01:09:57;;;;;;;22.67;15.25;;;;;;;10.02;100.00;97982.66;10324461;28;20506;-52
2023/05/10 01:14:57;;;;;;;26.58;15.02;;;;;;;10.12;100.00;97974.06;10324153;28;20131;-51
2023/05/10 01:19:56;;;;;;;24.35;14.95;;;;;;;10.14;100.00;97966.28;10325319;28;20163;-49
2023/05/10 01:25:44;;;;;;;22.75;14.32;;;;;;;10.03;100.00;97988.69;10323793;28;20067;-51
2023/05/10 01:30:43;;;;;;;24.25;14.48;;;;;;;10.08;100.00;97987.88;10304160;28;20775;-51
2023/05/10 01:35:47;;;;;;;;;;;;;;;10.16;100.00;97974.94;10323604;28;20113;-49
2023/05/10 01:41:11;;;;;;;23.10;13.95;;;;;;;10.19;100.00;97960.28;10322258;28;20004;-51
2023/05/10 01:46:16;;;;;;;24.35;14.65;;;;;;;10.28;100.00;97963.75;10322994;28;20125;-49
2023/05/10 01:51:19;;;;;;;21.10;13.77;;;;;;;10.33;100.00;97964.63;10322851;28;20192;-51
2023/05/10 01:56:23;;;;;;;22.20;13.82;;;;;;;10.36;100.00;97967.25;10322936;28;20183;-51
2023/05/10 02:01:25;;;;;;;24.73;15.30;;;;;;;10.38;100.00;97965.53;10322108;28;20503;-49
2023/05/10 02:06:26;;;;;;;21.77;14.85;;;;;;;10.37;100.00;97966.38;10322621;28;20076;-51
2023/05/10 02:11:28;;;;;;;19.77;12.73;;;;;;;10.10;100.00;97918.75;10322282;28;20108;-50
2023/05/10 02:16:30;;;;;;;20.95;13.60;;;;;;;10.36;100.00;97946.50;10321364;28;20550;-52
2023/05/10 02:21:31;;;;;;;22.95;14.57;;;;;;;10.44;100.00;97949.09;10322075;28;20587;-50
2023/05/10 02:26:32;;;;;;;22.00;14.57;;;;;;;10.36;100.00;97933.53;10319302;28;20120;-50
2023/05/10 02:31:33;;;;;;;22.92;13.70;;;;;;;10.48;100.00;97946.53;10320587;28;20116;-49
2023/05/10 02:36:32;;;;;;;20.80;14.02;;;;;;;10.52;100.00;97953.47;10321201;28;20116;-50
2023/05/10 02:41:32;;;;;;;21.95;14.35;;;;;;;10.53;100.00;97951.72;10320889;28;20583;-50
2023/05/10 02:46:31;;;;;;;23.85;15.27;;;;;;;10.38;100.00;97935.25;10321479;28;20183;-51
2023/05/10 02:51:34;;;;;;;21.77;14.15;;;;;;;10.39;100.00;97941.31;10323425;28;20511;-51
2023/05/10 02:56:36;;;;;;;27.42;17.08;;;;;;;10.39;100.00;97942.16;10324011;28;20057;-51
2023/05/10 03:01:35;;;;;;;21.95;15.40;;;;;;;10.41;100.00;97939.59;10322858;28;20071;-50
2023/05/10 03:06:34;;;;;;;10.25;7.88;;;;;;;10.31;99.77;97936.09;10323034;28;20064;-51
2023/05/10 03:11:45;;;;;;;;;;;;;;;10.13;95.67;97936.91;10323372;28;20076;-49
2023/05/10 03:16:52;;;;;;;;;;;;;;;9.76;93.25;97941.06;10323521;28;19963;-50
2023/05/10 03:21:53;;;;;;;10.10;4.97;;;;;;;9.38;93.56;97930.47;10322517;28;20011;-50
2023/05/10 03:26:56;;;;;;;6.75;4.00;;;;;;;9.17;93.20;97942.38;10322794;28;20081;-48
2023/05/10 03:31:55;;;;;;;6.60;4.38;;;;;;;8.98;94.23;97943.09;10323168;28;20076;-49
2023/05/10 03:36:54;;;;;;;6.88;4.93;;;;;;;8.99;93.13;97947.41;10323026;28;20558;-50
2023/05/10 03:41:53;;;;;;;7.47;4.63;;;;;;;8.93;93.13;97954.28;10322670;28;20510;-49
2023/05/10 03:46:52;;;;;;;7.30;4.72;;;;;;;8.92;93.04;97952.53;10321726;28;20149;-48
2023/05/10 03:51:51;;;;;;;;;;;;;;;8.90;91.75;97954.25;10318932;28;20120;-50
2023/05/10 03:56:50;;;;;;;7.45;4.53;;;;;;;8.95;92.19;97941.34;10326305;28;20302;-49
2023/05/10 04:01:49;;;;;;;8.30;4.28;;;;;;;8.95;91.43;97946.53;10326844;28;20151;-48
2023/05/10 04:06:48;;;;;;;7.47;4.47;;;;;;;9.16;92.41;97956.19;10330142;28;20052;-48
2023/05/10 04:11:47;;;;;;;6.80;4.50;;;;;;;9.21;92.54;97962.28;10366874;28;20116;-48
2023/05/10 04:16:46;;;;;;;6.28;4.38;;;;;;;9.26;92.41;97964.91;10366986;28;20115;-50
2023/05/10 04:21:45;;;;;;;7.07;4.00;;;;;;;9.30;91.02;97959.78;10366478;28;20144;-49
2023/05/10 04:26:43;;;;;;;7.28;3.72;;;;;;;9.44;89.88;97961.59;10365723;28;20064;-48
2023/05/10 04:31:42;;;;;;;7.03;4.15;;;;;;;9.52;87.02;97960.78;10366339;28;20036;-51
2023/05/10 04:36:41;;;;;;;7.95;4.25;;;;;;;9.67;88.53;97957.41;10366192;28;20040;-50
2023/05/10 04:41:40;;;;;;;5.22;3.50;;;;;;;9.62;88.04;97959.13;10366972;28;20502;-49
2023/05/10 04:46:39;;;;;;;8.23;4.13;;;;;;;9.72;86.56;97954.84;10366326;28;20044;-48
2023/05/10 04:51:38;;;;;;;5.38;3.75;;;;;;;10.01;87.84;97957.59;10365711;28;20425;-49
2023/05/10 04:56:37;;;;;;;5.18;3.47;;;;;;;10.14;85.09;97954.22;10366194;28;20123;-51
2023/05/10 05:01:36;;;;;;;6.40;3.75;;;;;;;10.20;83.67;97956.81;10363719;28;20036;-51
2023/05/10 05:06:35;;;;;;;5.55;3.70;;;;;;;10.24;84.26;97952.50;10364405;28;20610;-49
2023/05/10 05:11:34;;;;;;;6.10;3.70;;;;;;;10.24;81.29;97959.41;10364763;28;20112;-49
2023/05/10 05:16:33;;;;;;;5.65;3.97;;;;;;;10.19;82.50;97917.88;10364827;28;20080;-50
2023/05/10 05:21:32;;;;;;;5.50;3.85;;;;;;;10.56;81.31;97959.50;10364655;28;20041;-50
2023/05/10 05:26:31;;;;;;;;;;;;;;;9.98;78.83;97841.78;10364471;28;20136;-49
2023/05/10 05:31:30;;;;;;;5.13;3.80;;;;;;;10.80;75.60;97969.94;10364329;28;20272;-49
2023/05/10 05:36:30;;;;;;;;;;;;;;;10.88;78.33;97966.53;10363826;28;20087;-49
2023/05/10 05:41:29;;;;;;;;;;;;;;;10.98;78.20;97974.31;10358152;28;20020;-50
2023/05/10 05:46:28;;;;;;;5.55;3.40;;;;;;;10.99;76.64;97976.06;10363954;28;19928;-49
2023/05/10 05:51:27;;;;;;;5.85;4.18;;;;;;;11.12;73.85;97986.44;10365850;28;20446;-50
2023/05/10 05:56:26;;;;;;;7.35;3.30;;;;;;;10.98;72.47;97986.44;10367396;28;20044;-49
2023/05/10 06:01:25;;;;;;;4.22;3.22;;;;;;;11.01;74.76;97973.44;10366089;28;20499;-51
2023/05/10 06:06:24;;;;;;;6.68;3.30;;;;;;;11.30;71.66;97975.19;10366616;28;20461;-49
2023/05/10 06:11:23;;;;;;;8.35;4.53;;;;;;;11.41;71.61;97987.31;10364959;28;20036;-49
2023/05/10 06:16:23;;;;;;;;;;;;;;;11.65;73.07;97985.56;10366856;28;20072;-50
2023/05/10 06:21:22;;;;;;;4.13;3.03;;;;;;;11.82;69.46;97988.97;10365794;28;19983;-51
2023/05/10 06:26:21;;;;;;;7.57;4.20;;;;;;;12.19;71.68;97986.28;10365787;28;20306;-51
2023/05/10 06:31:20;;;;;;;6.30;3.80;;;;;;;12.68;71.04;97988.69;10364608;28;20075;-49
2023/05/10 06:36:19;;;;;;;8.73;4.72;;;;;;;13.07;68.55;97994.53;10365419;28;20467;-50
2023/05/10 06:41:18;;;;;;;4.95;3.65;;;;;;;13.50;66.76;97996.78;10365429;28;20072;-52
2023/05/10 06:46:17;;;;;;;;;;;;;;;13.92;62.05;97996.41;10364762;28;20116;-52
2023/05/10 06:51:17;;;;;;;6.22;3.35;;;;;;;14.12;57.46;97989.22;10363365;28;20000;-50
2023/05/10 06:56:16;;;;;;;5.40;3.25;;;;;;;14.30;58.52;97985.53;10362356;28;20075;-51
2023/05/10 07:01:15;;;;;;;6.18;3.72;;;;;;;14.75;55.26;97982.38;10360350;28;20464;-51
2023/05/10 07:06:14;;;;;;;5.15;3.33;;;;;;;14.96;55.80;97974.19;10361624;28;20464;-51
2023/05/10 07:11:13;;;;;;;3.58;2.80;;;;;;;15.12;52.09;97972.22;10360531;28;20041;-51
2023/05/10 07:16:12;;;;;;;7.00;3.00;;;;;;;15.49;53.02;97976.00;10361583;28;20548;-51
2023/05/10 07:21:11;;;;;;;6.50;2.90;;;;;;;15.72;49.60;97975.59;10360551;28;20099;-52
2023/05/10 07:26:10;;;;;;;5.10;3.03;;;;;;;16.11;49.96;97983.59;10359721;28;20037;-51
2023/05/10 07:31:09;;;;;;;;;;;;;;;16.32;50.70;97990.19;10361194;28;20037;-52
2023/05/10 07:36:08;;;;;;;4.70;2.87;;;;;;;16.49;47.56;97995.94;10360167;28;20004;-52
2023/05/10 07:41:06;;;;;;;3.58;2.60;;;;;;;16.54;47.67;97985.38;10359651;28;20029;-52
2023/05/10 07:46:05;;;;;;;6.05;2.75;;;;;;;16.27;45.70;97974.56;10359723;28;20915;-52
2023/05/10 07:51:06;;;;;;;6.03;2.65;;;;;;;16.32;47.84;97993.66;10363342;28;20446;-52
2023/05/10 07:56:32;;;;;;;5.70;3.38;;;;;;;16.17;47.34;97999.22;10362509;28;20068;-51
2023/05/10 08:01:32;;;;;;;5.80;3.08;;;;;;;16.18;47.20;98009.63;10362381;28;20163;-52
2023/05/10 08:06:31;;;;;;;27.80;23.25;;;;;;;16.21;48.39;98008.75;10362894;28;20080;-52
2023/05/10 08:11:30;;;;;;;4.97;3.38;;;;;;;16.16;47.48;98013.19;10362641;28;20032;-52
2023/05/10 08:16:29;;;;;;;6.90;2.88;;;;;;;16.17;45.51;98015.78;10362533;28;20044;-52
2023/05/10 08:21:28;;;;;;;5.22;3.40;;;;;;;16.35;48.79;98024.16;10362675;28;20047;-52
2023/05/10 08:26:27;;;;;;;6.05;3.88;;;;;;;16.40;46.23;98017.94;10362760;28;20072;-52
2023/05/10 08:31:26;;;;;;;7.72;4.38;;;;;;;16.79;49.39;98012.75;10362772;28;20067;-52
2023/05/10 08:36:25;;;;;;;6.68;3.85;;;;;;;16.98;47.50;98015.00;10360942;28;20068;-52
2023/05/10 08:41:25;;;;;;;5.00;2.95;;;;;;;17.05;45.19;98017.47;10364577;28;20167;-53
2023/05/10 08:46:27;;;;;;;6.40;3.40;;;;;;;17.16;42.82;98017.19;10369407;28;20067;-52
2023/05/10 08:51:32;;;;;;;7.55;3.47;;;;;;;17.29;43.58;98002.91;10371412;28;20073;-52
2023/05/10 08:56:31;;;;;;;6.05;2.92;;;;;;;17.50;43.75;98013.78;10371148;28;20112;-52
2023/05/10 09:01:31;;;;;;;13.02;3.33;;;;;;;17.43;42.76;98004.34;10363974;28;20767;-52
2023/05/10 09:06:31;;;;;;;7.53;3.35;;;;;;;17.63;42.83;98009.94;10367393;28;20057;-51
2023/05/10 09:11:31;;;;;;;10.70;3.50;;;;;;;17.93;41.85;98003.06;10362882;28;20077;-51
2023/05/10 09:16:30;;;;;;;3.42;2.35;;;;;;;18.20;40.00;98005.84;10366097;28;20072;-52
2023/05/10 09:21:30;;;;;;;12.68;3.40;;;;;;;18.36;39.79;97990.50;10369967;28;20027;-53
2023/05/10 09:26:29;;;;;;;5.75;3.17;;;;;;;18.82;39.08;98004.97;10370499;28;20096;-52
2023/05/10 09:31:51;;;;;;;4.60;3.08;;;;;;;19.03;41.18;97999.03;10370162;28;20039;-52
2023/05/10 09:36:54;;;;;;;5.35;3.33;;;;;;;19.15;37.89;97996.94;10366954;28;20084;-52
2023/05/10 09:41:53;;;;;;;7.45;3.50;;;;;;;19.21;39.07;97996.75;10365355;28;20145;-52
2023/05/10 09:46:55;;;;;;;6.20;3.22;;;;;;;19.27;38.36;97991.28;10367939;28;20471;-53
2023/05/10 09:52:05;;;;;;;7.15;3.45;;;;;;;19.34;38.86;97982.28;10361509;28;20147;-52
2023/05/10 09:57:04;;;;;;;6.22;2.97;;;;;;;19.36;37.43;97984.88;10369096;28;20064;-52
2023/05/10 10:02:03;;;;;;;8.25;3.83;;;;;;;19.44;37.36;97978.44;10366018;28;20468;-52
2023/05/10 10:07:04;;;;;;;4.70;3.00;;;;;;;18.64;38.20;97838.09;10369249;28;20475;-51
2023/05/10 10:12:04;;;;;;;4.40;3.03;;;;;;;19.50;37.34;97977.38;10366078;28;20063;-52
2023/05/10 10:17:03;;;;;;;4.93;3.25;;;;;;;19.70;36.15;97966.22;10365927;28;20076;-52
2023/05/10 10:22:02;;;;;;;13.30;3.75;;;;;;;19.55;37.01;97966.69;10362687;28;20048;-53
2023/05/10 10:27:12;;;;;;;6.50;3.53;;;;;;;19.79;38.60;97963.25;10367371;28;20114;-53
2023/05/10 10:32:38;;;;;;;9.45;3.38;;;;;;;20.06;37.35;97950.00;10359035;28;20108;-53
2023/05/10 10:37:50;;;;;;;8.02;4.22;;;;;;;20.25;35.18;97943.16;10363513;28;20064;-50
2023/05/10 10:42:49;;;;;;;5.47;3.35;;;;;;;20.34;35.93;97941.09;10362449;28;20135;-53
2023/05/10 10:47:53;;;;;;;8.73;3.75;;;;;;;20.66;37.02;97951.31;10363024;28;20143;-53
2023/05/10 10:52:52;;;;;;;5.28;3.03;;;;;;;20.91;36.44;97950.34;10356884;28;20128;-53
2023/05/10 10:57:59;;;;;;;4.68;3.17;;;;;;;21.14;36.56;97942.34;10364472;28;20147;-54
2023/05/10 11:03:06;;;;;;;6.15;2.92;;;;;;;21.14;34.37;97947.63;10361785;28;20080;-53
2023/05/10 11:08:27;;;;;;;4.97;3.08;;;;;;;21.12;36.10;97943.34;10364584;28;20073;-53
2023/05/10 11:13:42;;;;;;;6.15;3.50;;;;;;;21.09;31.57;97939.06;10360783;28;20075;-53
2023/05/10 11:19:11;;;;;;;6.57;3.80;;;;;;;21.09;33.75;97940.84;10363396;28;20072;-54
2023/05/10 11:24:15;;;;;;;;;;;;;;;21.36;36.22;97938.00;10359958;28;20076;-54
2023/05/10 11:29:13;;;;;;;4.97;3.03;;;;;;;21.36;34.85;97930.97;10361186;28;20006;-53
2023/05/10 11:34:24;;;;;;;4.75;3.10;;;;;;;21.39;35.43;97925.56;10364627;28;20075;-54
2023/05/10 11:39:28;;;;;;;5.85;3.72;;;;;;;21.53;33.57;97925.81;10362671;28;20071;-54
2023/05/10 11:44:31;;;;;;;6.03;2.83;;;;;;;21.27;34.37;97889.97;10363135;28;20104;-54
2023/05/10 11:49:30;;;;;;;7.25;3.40;;;;;;;21.67;34.50;97929.66;10363170;28;20809;-54
2023/05/10 11:54:29;;;;;;;7.90;3.47;;;;;;;21.63;33.17;97912.22;10363453;28;20057;-54
2023/05/10 11:59:28;;;;;;;6.40;3.38;;;;;;;21.46;33.09;97929.66;10362573;28;20041;-54
2023/05/10 12:04:29;;;;;;;4.78;2.97;;;;;;;21.33;33.76;97926.66;10362322;28;20479;-53
2023/05/10 12:09:28;;;;;;;6.50;3.22;;;;;;;21.32;34.52;97924.94;10361175;28;20074;-54
2023/05/10 12:14:28;;;;;;;4.93;3.20;;;;;;;20.80;33.71;97870.81;10363229;28;20036;-53
2023/05/10 12:19:27;;;;;;;5.55;3.63;;;;;;;20.66;35.00;97919.66;10370257;28;20072;-53
2023/05/10 12:24:26;;;;;;;7.60;4.10;;;;;;;20.51;34.85;97904.44;10370571;28;20120;-53
2023/05/10 12:29:25;;;;;;;5.60;3.90;;;;;;;20.04;35.53;97835.94;10369886;28;20020;-53
2023/05/10 12:34:31;;;;;;;18.92;14.93;;;;;;;20.22;38.05;97887.94;10365598;28;20057;-53
2023/05/10 12:39:40;;;;;;;9.68;6.10;;;;;;;20.44;36.48;97884.50;10368420;28;20132;-53
2023/05/10 12:44:39;;;;;;;;;;;;;;;20.26;34.49;97886.06;10365036;28;20127;-54
2023/05/10 12:49:38;;;;;;;6.93;4.17;;;;;;;20.21;35.04;97883.59;10362687;28;19970;-53
2023/05/10 12:54:37;;;;;;;5.63;3.70;;;;;;;19.94;34.98;97842.47;10369855;28;21674;-53
2023/05/10 12:59:36;;;;;;;6.93;3.90;;;;;;;20.26;34.81;97865.81;10368813;28;20483;-53
2023/05/10 13:04:37;;;;;;;6.97;3.30;;;;;;;20.38;34.62;97871.53;10368282;28;20079;-53
2023/05/10 13:09:36;;;;;;;5.57;3.30;;;;;;;20.48;35.09;97852.69;10369051;28;20072;-53
2023/05/10 13:14:35;;;;;;;12.23;3.90;;;;;;;20.50;35.13;97848.22;10368023;28;20522;-53
2023/05/10 13:19:34;;;;;;;8.63;4.13;;;;;;;20.48;35.91;97850.06;10368700;28;20905;-52
2023/05/10 13:24:34;;;;;;;7.80;4.35;;;;;;;20.37;33.95;97810.03;10368142;28;20769;-53
2023/05/10 13:29:33;;;;;;;5.55;3.78;;;;;;;20.54;34.99;97840.19;10369827;28;20064;-53
2023/05/10 13:34:32;;;;;;;7.68;3.60;;;;;;;20.57;35.61;97835.66;10367925;28;20031;-52
2023/05/10 13:39:34;;;;;;;7.78;4.65;;;;;;;20.19;34.90;97848.53;10366260;28;20923;-53
2023/05/10 13:44:33;;;;;;;8.52;3.75;;;;;;;20.04;35.73;97846.47;10370240;28;20068;-53
2023/05/10 13:49:33;;;;;;;6.47;3.70;;;;;;;19.87;35.55;97840.06;10367149;28;20106;-53
2023/05/10 13:54:36;;;;;;;6.32;3.50;;;;;;;19.73;36.09;97836.22;10367895;28;20534;-52
2023/05/10 13:59:35;;;;;;;8.60;3.63;;;;;;;19.70;35.95;97824.03;10362599;28;20137;-53
2023/05/10 14:04:35;;;;;;;7.43;4.30;;;;;;;19.71;35.95;97827.53;10363010;28;20044;-53
2023/05/10 14:09:34;;;;;;;10.13;4.63;;;;;;;19.68;37.03;97828.50;10363208;28;20108;-53
2023/05/10 14:14:33;;;;;;;7.93;4.50;;;;;;;19.62;36.55;97823.44;10366658;28;20023;-53
2023/05/10 14:19:33;;;;;;;5.68;4.25;;;;;;;19.33;37.07;97832.34;10366390;28;20061;-53
2023/05/10 14:24:32;;;;;;;11.15;4.35;;;;;;;19.00;36.49;97835.22;10365498;28;20148;-52
2023/05/10 14:29:31;;;;;;;11.90;4.03;;;;;;;18.67;38.78;97813.53;10361915;28;20082;-52
2023/05/10 14:34:30;;;;;;;11.15;5.35;;;;;;;18.92;37.74;97838.09;10359673;28;20127;-52
2023/05/10 14:39:30;;;;;;;8.70;4.45;;;;;;;18.80;37.95;97834.09;10361195;28;20062;-52
2023/05/10 14:44:29;;;;;;;13.23;4.07;;;;;;;18.57;38.61;97837.47;10362057;28;20514;-53
2023/05/10 14:49:28;;;;;;;9.40;4.82;;;;;;;18.40;39.07;97835.34;10360737;28;20554;-53
2023/05/10 14:54:27;;;;;;;7.63;4.15;;;;;;;18.18;39.46;97821.19;10361610;28;20132;-52
2023/05/10 14:59:26;;;;;;;7.22;4.32;;;;;;;18.13;39.77;97842.31;10362439;28;20566;-53
2023/05/10 15:04:25;;;;;;;10.85;4.20;;;;;;;18.03;39.20;97827.72;10361588;28;20029;-53
2023/05/10 15:09:24;;;;;;;9.13;4.78;;;;;;;17.71;40.28;97824.25;10362390;28;20032;-52
2023/05/10 15:14:23;;;;;;;7.63;4.75;;;;;;;17.72;40.38;97819.88;10358198;28;20135;-52
2023/05/10 15:19:22;;;;;;;6.63;3.80;;;;;;;17.74;40.92;97824.16;10359584;28;20116;-52
2023/05/10 15:24:21;;;;;;;7.90;3.95;;;;;;;17.67;41.07;97827.88;10360178;28;20136;-52
2023/05/10 15:29:20;;;;;;;6.28;4.65;;;;;;;17.64;40.83;97821.88;10359198;28;20098;-52
2023/05/10 15:34:19;;;;;;;8.40;5.00;;;;;;;17.46;41.24;97823.22;10358926;28;20127;-52
2023/05/10 15:39:18;;;;;;;8.48;5.32;;;;;;;17.26;41.31;97818.50;10358904;28;20069;-52
2023/05/10 15:44:18;;;;;;;8.45;4.80;;;;;;;17.04;42.11;97823.47;10359635;28;20052;-52
2023/05/10 15:49:17;;;;;;;10.50;5.65;;;;;;;16.93;42.07;97821.13;10358393;28;20072;-53
2023/05/10 15:54:16;;;;;;;10.98;5.65;;;;;;;16.90;42.96;97813.34;10364914;28;20021;-52
2023/05/10 15:59:15;;;;;;;22.75;6.70;;;;;;;16.74;43.05;97818.06;10361253;28;20123;-52
2023/05/10 16:04:14;;;;;;;10.80;6.10;;;;;;;16.78;42.92;97813.63;10369138;28;20025;-52
2023/05/10 16:09:12;;;;;;;11.65;5.63;;;;;;;16.63;43.11;97804.34;10366551;28;20025;-52
2023/05/10 16:14:11;;;;;;;10.85;5.43;;;;;;;16.68;43.95;97813.00;10366974;28;20363;-52
2023/05/10 16:19:10;;;;;;;9.32;5.63;;;;;;;16.45;42.90;97816.16;10370517;28;20072;-52
2023/05/10 16:24:11;;;;;;;10.05;6.53;;;;;;;16.24;43.30;97821.00;10370454;28;20429;-52
2023/05/10 16:29:10;;;;;;;12.75;7.60;;;;;;;16.26;43.63;97827.06;10365001;28;20120;-53
2023/05/10 16:34:09;;;;;;;10.68;6.25;;;;;;;16.10;44.07;97825.69;10367140;28;20060;-52
2023/05/10 16:39:08;;;;;;;11.02;6.90;;;;;;;15.84;44.13;97828.88;10366276;28;20111;-52
2023/05/10 16:44:07;;;;;;;10.68;6.13;;;;;;;15.60;44.80;97828.44;10367018;28;20766;-52
2023/05/10 16:49:07;;;;;;;13.05;6.80;;;;;;;15.44;45.50;97827.88;10368399;28;20133;-52
2023/05/10 16:54:06;;;;;;;12.20;5.68;;;;;;;15.15;44.90;97832.78;10366051;28;20076;-51
2023/05/10 16:59:05;;;;;;;10.15;6.35;;;;;;;14.88;46.84;97844.59;10366171;28;20033;-53
2023/05/10 17:04:04;;;;;;;8.18;4.95;;;;;;;14.68;46.76;97844.88;10363350;28;20129;-52
2023/05/10 17:09:04;;;;;;;;;;;;;;;14.44;47.40;97838.28;10365826;28;20053;-52
2023/05/10 17:14:03;;;;;;;12.05;5.75;;;;;;;14.24;47.97;97835.97;10363301;28;20015;-51
2023/05/10 17:19:02;;;;;;;;;;;;;;;14.09;48.91;97844.88;10364367;28;20123;-50
2023/05/10 17:24:01;;;;;;;11.55;6.00;;;;;;;13.80;49.97;97848.72;10366493;28;20381;-52
2023/05/10 17:28:59;;;;;;;;;;;;;;;13.62;49.98;97852.41;10366645;28;20033;-52
2023/05/10 17:33:59;;;;;;;7.43;4.78;;;;;;;13.51;51.04;97859.44;10362242;28;19979;-52
2023/05/10 17:38:58;;;;;;;10.75;5.63;;;;;;;13.37;51.65;97862.22;10363073;28;20091;-51
2023/05/10 17:43:56;;;;;;;;;;;;;;;13.27;52.03;97871.88;10364374;28;20490;-51
2023/05/10 17:48:55;;;;;;;7.90;5.00;;;;;;;13.26;52.42;97869.28;10361544;28;20394;-52
2023/05/10 17:53:54;;;;;;;;;;;;;;;13.19;53.05;97878.03;10363650;28;20535;-51
2023/05/10 17:58:53;;;;;;;8.18;4.78;;;;;;;13.03;53.24;97854.72;10363047;28;20405;-52
2023/05/10 18:03:52;;;;;;;9.45;4.35;;;;;;;13.05;53.66;97880.78;10364469;28;20079;-52
2023/05/10 18:08:51;;;;;;;;;;;;;;;13.04;53.91;97882.50;10360029;28;20039;-52
2023/05/10 18:13:50;;;;;;;7.00;4.75;;;;;;;13.02;54.65;97891.22;10358271;28;19955;-52
2023/05/10 18:18:49;;;;;;;;;;;;;;;12.96;54.67;97886.94;10363030;28;20072;-52
2023/05/10 18:23:47;;;;;;;7.47;4.40;;;;;;;12.98;54.52;97898.19;10361120;28;20006;-52
2023/05/10 18:28:46;;;;;;;;;;;;;;;12.98;55.17;97897.31;10363585;28;20029;-52
2023/05/10 18:33:46;;;;;;;7.38;4.53;;;;;;;12.60;55.40;97882.84;10362289;28;20389;-52
2023/05/10 18:38:45;;;;;;;5.60;4.50;;;;;;;12.80;55.44;97907.00;10361065;28;20164;-52
2023/05/10 18:43:44;;;;;;;;;;;;;;;12.85;55.98;97905.22;10362380;28;20525;-52
2023/05/10 18:48:47;;;;;;;9.90;5.00;;;;;;;12.89;55.87;97919.09;10361691;28;19924;-52
2023/05/10 18:53:46;;;;;;;8.18;4.78;;;;;;;12.77;56.63;97924.41;10360197;28;20562;-52
2023/05/10 18:58:45;;;;;;;7.25;4.90;;;;;;;12.73;56.36;97919.22;10356692;28;20136;-52
2023/05/10 19:03:46;;;;;;;;;;;;;;;12.75;56.74;97923.56;10359729;28;20059;-50
2023/05/10 19:08:44;;;;;;;;;;;;;;;12.71;57.13;97927.91;10359935;28;20370;-51
2023/05/10 19:13:44;;;;;;;6.82;4.88;;;;;;;12.66;57.66;97925.34;10359332;28;20405;-52
2023/05/10 19:18:45;;;;;;;10.38;5.07;;;;;;;12.61;57.53;97921.91;10360940;28;20617;-52
2023/05/10 19:23:44;;;;;;;20.00;5.20;;;;;;;12.68;57.70;97928.78;10359507;28;20799;-50
2023/05/10 19:28:43;;;;;;;;;;;;;;;12.69;57.71;97933.13;10361081;28;20039;-52
2023/05/10 19:33:42;;;;;;;7.03;4.80;;;;;;;12.63;57.89;97927.09;10359729;28;19975;-51
2023/05/10 19:38:41;;;;;;;;;;;;;;;12.63;57.93;97919.31;10360392;28;20045;-52
2023/05/10 19:43:40;;;;;;;9.65;4.63;;;;;;;11.96;58.16;97806.03;10359905;28;19956;-52
2023/05/10 19:48:39;;;;;;;7.30;4.38;;;;;;;12.59;58.06;97921.03;10359885;28;20069;-55
2023/05/10 19:53:42;;;;;;;;;;;;;;;12.60;58.07;97920.19;10359368;28;20533;-51
2023/05/10 19:58:41;;;;;;;5.40;3.97;;;;;;;12.53;57.96;97918.47;10359618;28;20116;-51
2023/05/10 20:03:40;;;;;;;;;;;;;;;12.55;57.99;97914.13;10360200;28;20310;-51
2023/05/10 20:08:39;;;;;;;9.15;4.68;;;;;;;12.55;58.77;97911.50;10358927;28;19980;-51
2023/05/10 20:13:38;;;;;;;7.43;5.28;;;;;;;12.59;59.27;97907.16;10358657;28;20048;-52
2023/05/10 20:18:37;;;;;;;7.97;4.20;;;;;;;12.53;59.94;97900.25;10360133;28;20032;-50
2023/05/10 20:23:36;;;;;;;5.55;4.25;;;;;;;12.45;59.17;97900.31;10353465;28;20029;-52
2023/05/10 20:28:35;;;;;;;6.13;4.22;;;;;;;12.32;58.60;97896.03;10359275;28;20446;-49
2023/05/10 20:33:34;;;;;;;;;;;;;;;12.34;58.83;97901.25;10359492;28;20071;-52
2023/05/10 20:38:33;;;;;;;4.90;4.00;;;;;;;12.28;58.54;97891.75;10366893;28;19916;-52
2023/05/10 20:43:32;;;;;;;5.13;3.88;;;;;;;12.39;58.25;97900.34;10366206;28;20104;-52
2023/05/10 20:48:31;;;;;;;6.13;4.35;;;;;;;12.43;58.40;97898.59;10366635;28;20502;-51
2023/05/10 20:53:30;;;;;;;10.70;4.30;;;;;;;12.41;58.36;97910.75;10366535;28;20565;-52
2023/05/10 20:58:29;;;;;;;;;;;;;;;12.41;58.33;97902.94;10366300;28;20518;-50
2023/05/10 21:03:28;;;;;;;6.60;4.20;;;;;;;12.33;58.35;97904.72;10363920;28;20422;-52
2023/05/10 21:08:27;;;;;;;6.75;3.92;;;;;;;12.32;58.53;97905.59;10363586;28;20133;-49
2023/05/10 21:13:26;;;;;;;;;;;;;;;12.37;58.31;97896.00;10365759;28;20029;-51
2023/05/10 21:18:25;;;;;;;5.07;3.67;;;;;;;12.28;58.50;97887.41;10366267;28;19970;-52
2023/05/10 21:23:24;;;;;;;;;;;;;;;12.26;58.69;97896.91;10365008;28;20502;-51
2023/05/10 21:28:23;;;;;;;5.28;3.88;;;;;;;12.29;58.35;97902.13;10364678;28;19913;-52
2023/05/10 21:33:22;;;;;;;;;;;;;;;12.36;57.96;97896.91;10363695;28;20095;-52
2023/05/10 21:38:21;;;;;;;5.63;4.30;;;;;;;12.33;57.96;97896.94;10365497;28;20122;-52
2023/05/10 21:43:20;;;;;;;5.07;4.35;;;;;;;12.01;57.52;97851.09;10366139;28;20138;-52
2023/05/10 21:48:19;;;;;;;;;;;;;;;12.33;58.04;97896.94;10364863;28;20076;-52
2023/05/10 21:53:18;;;;;;;6.72;4.45;;;;;;;12.27;57.58;97900.38;10364921;28;19913;-52
2023/05/10 21:58:17;;;;;;;5.88;4.22;;;;;;;12.27;57.25;97900.38;10360276;28;20042;-52
2023/05/10 22:03:16;;;;;;;;;;;;;;;12.27;57.44;97893.50;10363359;28;20060;-52
2023/05/10 22:08:15;;;;;;;6.45;4.15;;;;;;;12.25;57.20;97894.31;10363221;28;20426;-52
2023/05/10 22:13:14;;;;;;;;;;;;;;;12.29;57.28;97896.06;10360181;28;20502;-52
2023/05/10 22:18:13;;;;;;;6.05;4.63;;;;;;;12.28;57.00;97896.94;10358753;28;19927;-52
2023/05/10 22:23:12;;;;;;;6.90;4.78;;;;;;;12.38;56.98;97889.94;10356330;28;20025;-50
2023/05/10 22:28:11;;;;;;;6.47;5.25;;;;;;;12.46;57.28;97891.63;10357142;28;20120;-52
2023/05/10 22:33:10;;;;;;;;;;;;;;;12.47;58.07;97889.91;10362791;28;20072;-51
2023/05/10 22:38:09;;;;;;;7.43;5.10;;;;;;;12.52;58.41;97888.97;10362785;28;20002;-51
2023/05/10 22:43:08;;;;;;;6.78;5.15;;;;;;;12.53;57.93;97884.63;10361550;28;20477;-52
2023/05/10 22:48:07;;;;;;;;;;;;;;;12.63;58.43;97888.06;10362085;28;20048;-51
2023/05/10 22:53:06;;;;;;;8.50;6.03;;;;;;;12.51;58.43;97889.88;10362047;28;19951;-52
2023/05/10 22:58:05;;;;;;;8.50;6.22;;;;;;;12.34;58.00;97888.22;10361672;28;20119;-53
2023/05/10 23:03:05;;;;;;;8.43;7.13;;;;;;;12.38;57.82;97876.94;10360257;28;20123;-52
2023/05/10 23:08:04;;;;;;;9.73;7.88;;;;;;;12.32;57.48;97869.16;10361613;28;20061;-51
2023/05/10 23:13:05;;;;;;;9.68;6.80;;;;;;;12.20;57.63;97868.31;10361472;28;20411;-52
2023/05/10 23:18:04;;;;;;;10.25;7.03;;;;;;;12.15;57.98;97872.69;10361650;28;20485;-53
2023/05/10 23:23:03;;;;;;;9.93;7.32;;;;;;;12.08;57.93;97868.38;10361161;28;20140;-51
2023/05/10 23:28:02;;;;;;;;;;;;;;;12.12;57.50;97870.13;10361109;28;20368;-52